createdAt,value
2018-11-23T00:01:09.627Z,16.97
2018-11-23T00:03:39.919Z,17.02
2018-11-23T00:06:09.914Z,17.00
2018-11-23T00:08:39.992Z,17.01
2018-11-23T00:11:10.516Z,17.12
2018-11-23T00:13:40.222Z,17.01
2018-11-23T00:16:09.721Z,17.16
2018-11-23T00:18:39.673Z,17.05
2018-11-23T00:21:10.077Z,17.00
2018-11-23T00:23:40.402Z,17.13
2018-11-23T00:26:10.323Z,16.97
2018-11-23T00:28:40.323Z,17.12
2018-11-23T00:31:09.810Z,17.18
2018-11-23T00:33:39.223Z,17.13
2018-11-23T00:36:08.719Z,16.99
2018-11-23T00:38:38.550Z,16.97
2018-11-23T00:41:07.958Z,17.06
2018-11-23T00:43:38.161Z,17.14
2018-11-23T00:46:08.490Z,17.05
2018-11-23T00:48:38.595Z,16.91
2018-11-23T00:51:08.113Z,16.94
2018-11-23T00:53:38.032Z,17.01
2018-11-23T00:56:08.011Z,16.99
2018-11-23T00:58:38.116Z,17.00
2018-11-23T01:01:08.469Z,17.03
2018-11-23T01:03:38.270Z,17.10
2018-11-23T01:06:08.650Z,17.13
2018-11-23T01:08:39.053Z,17.16
2018-11-23T01:11:09.115Z,17.34
2018-11-23T01:13:39.225Z,17.68
2018-11-23T01:16:09.912Z,17.87
2018-11-23T01:18:40.011Z,18.06
2018-11-23T01:21:10.075Z,18.28
2018-11-23T01:23:39.926Z,18.49
2018-11-23T01:26:10.480Z,18.64
2018-11-23T01:28:40.633Z,18.77
2018-11-23T01:31:10.571Z,18.86
2018-11-23T01:33:40.845Z,18.97
2018-11-23T01:36:10.875Z,19.08
2018-11-23T01:38:41.001Z,19.16
2018-11-23T01:41:11.038Z,19.35
2018-11-23T01:43:41.125Z,19.67
2018-11-23T01:46:11.190Z,20.08
2018-11-23T01:48:40.970Z,20.50
2018-11-23T01:51:11.350Z,20.88
2018-11-23T01:53:41.120Z,21.25
2018-11-23T01:56:11.524Z,21.62
2018-11-23T01:58:41.273Z,21.98
2018-11-23T02:01:11.451Z,22.23
2018-11-23T02:03:41.433Z,22.42
2018-11-23T02:06:11.629Z,22.76
2018-11-23T02:08:41.428Z,22.69
2018-11-23T02:11:11.732Z,22.73
2018-11-23T02:13:41.521Z,23.08
2018-11-23T02:16:11.511Z,23.51
2018-11-23T02:18:41.258Z,23.72
2018-11-23T02:21:11.523Z,24.01
2018-11-23T02:23:41.766Z,24.18
2018-11-23T02:26:11.919Z,24.32
2018-11-23T02:28:41.632Z,24.19
2018-11-23T02:31:11.996Z,23.88
2018-11-23T02:33:41.889Z,23.93
2018-11-23T02:36:12.474Z,23.65
2018-11-23T02:38:42.325Z,23.94
2018-11-23T02:41:12.321Z,24.17
2018-11-23T02:43:42.719Z,23.74
2018-11-23T02:46:12.785Z,23.81
2018-11-23T02:48:43.379Z,23.90
2018-11-23T02:51:13.602Z,24.19
2018-11-23T02:53:43.751Z,24.33
2018-11-23T02:56:14.416Z,24.20
2018-11-23T02:58:44.636Z,24.26
2018-11-23T03:01:15.201Z,24.71
2018-11-23T03:03:45.438Z,25.28
2018-11-23T03:06:16.778Z,25.60
2018-11-23T03:08:46.403Z,26.14
2018-11-23T03:11:16.469Z,26.55
2018-11-23T03:13:46.121Z,26.91
2018-11-23T03:16:16.311Z,26.98
2018-11-23T03:18:46.078Z,27.09
2018-11-23T03:21:16.298Z,26.61
2018-11-23T03:23:46.608Z,26.60
2018-11-23T03:26:16.225Z,26.70
2018-11-23T03:28:46.346Z,26.52
2018-11-23T03:31:16.041Z,26.59
2018-11-23T03:33:46.068Z,26.85
2018-11-23T03:36:16.199Z,27.32
2018-11-23T03:38:46.481Z,27.71
2018-11-23T03:41:16.353Z,27.91
2018-11-23T03:43:46.553Z,27.98
2018-11-23T03:46:16.359Z,27.75
2018-11-23T03:48:46.396Z,27.84
2018-11-23T03:51:16.411Z,28.30
2018-11-23T03:53:46.778Z,28.42
2018-11-23T03:56:16.727Z,28.62
2018-11-23T03:58:47.040Z,28.77
2018-11-23T04:01:17.127Z,28.79
2018-11-23T04:03:47.196Z,28.81
2018-11-23T04:06:16.805Z,28.94
2018-11-23T04:08:47.128Z,28.91
2018-11-23T04:11:17.122Z,28.87
2018-11-23T04:13:47.365Z,28.71
2018-11-23T04:16:17.475Z,28.64
2018-11-23T04:18:47.707Z,28.78
2018-11-23T04:21:17.837Z,28.64
2018-11-23T04:23:47.633Z,28.94
2018-11-23T04:26:24.362Z,29.36
2018-11-23T04:28:48.004Z,29.57
2018-11-23T04:31:18.204Z,29.22
2018-11-23T04:33:48.495Z,29.65
2018-11-23T04:36:19.288Z,30.11
2018-11-23T04:38:49.186Z,30.14
2018-11-23T04:41:19.291Z,30.20
2018-11-23T04:43:49.759Z,30.02
2018-11-23T04:46:19.642Z,30.22
2018-11-23T04:48:49.602Z,30.31
2018-11-23T04:51:19.434Z,29.45
2018-11-23T04:53:49.471Z,29.77
2018-11-23T04:56:19.714Z,30.03
2018-11-23T04:58:50.001Z,30.24
2018-11-23T05:01:20.037Z,30.23
2018-11-23T05:03:50.487Z,30.50
2018-11-23T05:06:20.806Z,30.47
2018-11-23T05:08:50.592Z,30.48
2018-11-23T05:11:21.161Z,30.36
2018-11-23T05:13:51.147Z,30.48
2018-11-23T05:16:21.040Z,30.49
2018-11-23T05:18:50.968Z,30.57
2018-11-23T05:21:20.996Z,30.75
2018-11-23T05:23:50.716Z,30.97
2018-11-23T05:26:21.114Z,31.06
2018-11-23T05:28:51.043Z,30.99
2018-11-23T05:31:21.277Z,30.97
2018-11-23T05:33:51.387Z,31.15
2018-11-23T05:36:21.803Z,31.26
2018-11-23T05:38:51.852Z,31.27
2018-11-23T05:41:22.074Z,31.07
2018-11-23T05:43:52.381Z,31.19
2018-11-23T05:46:22.795Z,31.28
2018-11-23T05:48:52.757Z,31.47
2018-11-23T05:51:22.716Z,31.72
2018-11-23T05:53:52.959Z,31.70
2018-11-23T05:56:23.043Z,31.84
2018-11-23T05:58:53.120Z,32.16
2018-11-23T06:01:23.207Z,32.56
2018-11-23T06:03:53.225Z,32.57
2018-11-23T06:06:23.237Z,32.63
2018-11-23T06:08:53.282Z,32.83
2018-11-23T06:11:23.487Z,32.58
2018-11-23T06:13:53.592Z,32.56
2018-11-23T06:16:23.555Z,32.92
2018-11-23T06:18:54.077Z,32.30
2018-11-23T06:21:24.264Z,32.56
2018-11-23T06:23:54.567Z,32.48
2018-11-23T06:26:24.793Z,32.40
2018-11-23T06:28:54.718Z,31.94
2018-11-23T06:31:24.548Z,31.74
2018-11-23T06:33:54.879Z,31.98
2018-11-23T06:36:24.884Z,31.92
2018-11-23T06:38:54.993Z,32.19
2018-11-23T06:41:25.003Z,32.09
2018-11-23T06:43:55.195Z,32.12
2018-11-23T06:46:25.272Z,31.98
2018-11-23T06:48:55.682Z,32.05
2018-11-23T06:51:25.801Z,32.10
2018-11-23T06:53:56.003Z,32.20
2018-11-23T06:56:26.554Z,32.36
2018-11-23T06:58:56.957Z,32.41
2018-11-23T07:01:27.482Z,32.51
2018-11-23T07:03:57.516Z,32.69
2018-11-23T07:06:27.315Z,32.11
2018-11-23T07:08:57.275Z,31.77
2018-11-23T07:11:27.162Z,32.36
2018-11-23T07:14:03.746Z,32.57
2018-11-23T07:16:28.480Z,32.64
2018-11-23T07:18:58.553Z,32.40
2018-11-23T07:21:28.633Z,32.49
2018-11-23T07:23:59.154Z,32.42
2018-11-23T07:26:28.999Z,32.19
2018-11-23T07:28:58.718Z,32.00
2018-11-23T07:31:29.044Z,32.09
2018-11-23T07:33:59.038Z,32.13
2018-11-23T07:36:29.116Z,32.12
2018-11-23T07:38:59.206Z,32.02
2018-11-23T07:41:29.275Z,32.17
2018-11-23T07:43:59.113Z,32.28
2018-11-23T07:46:29.358Z,32.27
2018-11-23T07:48:59.222Z,32.19
2018-11-23T07:51:29.066Z,32.13
2018-11-23T07:53:59.083Z,32.38
2018-11-23T07:56:29.044Z,32.14
2018-11-23T07:58:59.636Z,32.26
2018-11-23T08:01:29.595Z,32.42
2018-11-23T08:03:59.673Z,32.19
2018-11-23T08:06:29.439Z,32.10
2018-11-23T08:08:59.834Z,31.92
2018-11-23T08:11:29.682Z,31.90
2018-11-23T08:13:59.724Z,31.83
2018-11-23T08:16:29.761Z,31.70
2018-11-23T08:19:00.314Z,31.91
2018-11-23T08:21:30.309Z,32.12
2018-11-23T08:24:00.118Z,31.89
2018-11-23T08:26:30.070Z,31.66
2018-11-23T08:29:00.155Z,31.79
2018-11-23T08:31:30.354Z,31.47
2018-11-23T08:34:00.640Z,31.78
2018-11-23T08:36:30.719Z,32.07
2018-11-23T08:39:04.707Z,32.01
2018-11-23T08:41:31.954Z,32.08
2018-11-23T08:44:02.112Z,32.07
2018-11-23T08:46:31.892Z,31.84
2018-11-23T08:49:01.888Z,31.89
2018-11-23T08:51:31.717Z,31.46
2018-11-23T08:54:01.959Z,31.54
2018-11-23T08:56:31.680Z,31.54
2018-11-23T08:59:02.083Z,31.36
2018-11-23T09:01:31.834Z,31.53
2018-11-23T09:04:02.024Z,31.50
2018-11-23T09:06:31.997Z,31.55
2018-11-23T09:09:02.053Z,31.32
2018-11-23T09:11:31.971Z,31.37
2018-11-23T09:14:02.233Z,31.38
2018-11-23T09:16:32.126Z,31.26
2018-11-23T09:19:02.098Z,31.35
2018-11-23T09:21:32.232Z,31.26
2018-11-23T09:24:02.250Z,31.32
2018-11-23T09:26:32.270Z,31.28
2018-11-23T09:29:01.875Z,31.36
2018-11-23T09:31:32.209Z,31.40
2018-11-23T09:34:01.676Z,31.38
2018-11-23T09:36:31.687Z,31.34
2018-11-23T09:39:01.754Z,31.40
2018-11-23T09:41:32.163Z,31.40
2018-11-23T09:44:01.894Z,31.18
2018-11-23T09:46:31.882Z,31.06
2018-11-23T09:49:02.234Z,30.90
2018-11-23T09:51:32.823Z,30.76
2018-11-23T09:54:02.671Z,30.47
2018-11-23T09:56:32.480Z,30.03
2018-11-23T09:59:02.182Z,29.69
2018-11-23T10:01:32.165Z,29.36
2018-11-23T10:04:01.813Z,28.96
2018-11-23T10:06:32.028Z,28.75
2018-11-23T10:09:02.480Z,28.36
2018-11-23T10:11:32.354Z,28.01
2018-11-23T10:14:02.280Z,27.75
2018-11-23T10:16:33.435Z,27.59
2018-11-23T10:19:04.960Z,27.37
2018-11-23T10:21:34.520Z,27.14
2018-11-23T10:24:04.390Z,26.90
2018-11-23T10:26:34.440Z,26.71
2018-11-23T10:29:04.446Z,26.64
2018-11-23T10:31:35.104Z,26.48
2018-11-23T10:34:05.110Z,26.44
2018-11-23T10:36:34.991Z,26.45
2018-11-23T10:39:04.464Z,26.49
2018-11-23T10:44:04.287Z,26.33
2018-11-23T10:46:34.153Z,26.13
2018-11-23T10:49:04.037Z,26.06
2018-11-23T10:51:34.072Z,26.03
2018-11-23T10:54:04.829Z,25.92
2018-11-23T10:56:34.919Z,25.78
2018-11-23T10:59:04.962Z,25.69
2018-11-23T11:01:35.357Z,25.54
2018-11-23T11:04:04.721Z,25.31
2018-11-23T11:06:35.153Z,25.21
2018-11-23T11:09:04.939Z,24.97
2018-11-23T11:11:34.635Z,24.77
2018-11-23T11:14:04.250Z,24.50
2018-11-23T11:16:35.802Z,24.28
2018-11-23T11:19:05.303Z,23.98
2018-11-23T11:21:35.600Z,23.90
2018-11-23T11:24:05.833Z,23.71
2018-11-23T11:26:36.510Z,23.76
2018-11-23T11:29:06.624Z,23.52
2018-11-23T11:31:37.287Z,23.22
2018-11-23T11:34:07.165Z,23.26
2018-11-23T11:36:37.908Z,23.22
2018-11-23T11:39:08.486Z,23.18
2018-11-23T11:41:38.921Z,22.97
2018-11-23T11:44:09.174Z,22.94
2018-11-23T11:46:38.991Z,22.97
2018-11-23T11:49:09.075Z,22.63
2018-11-23T11:51:39.233Z,22.81
2018-11-23T11:54:09.672Z,22.56
2018-11-23T11:56:40.889Z,22.41
2018-11-23T11:59:11.122Z,22.29
2018-11-23T12:01:41.149Z,22.21
2018-11-23T12:04:11.879Z,22.09
2018-11-23T12:06:41.442Z,22.02
2018-11-23T12:09:11.844Z,22.16
2018-11-23T12:11:42.556Z,22.38
2018-11-23T12:14:13.436Z,22.39
2018-11-23T12:16:43.678Z,22.23
2018-11-23T12:19:14.248Z,21.94
2018-11-23T12:21:44.465Z,21.68
2018-11-23T12:24:15.040Z,21.58
2018-11-23T12:26:45.319Z,21.60
2018-11-23T12:29:15.991Z,21.46
2018-11-23T12:31:46.565Z,21.30
2018-11-23T12:34:16.804Z,21.24
2018-11-23T12:36:46.712Z,21.13
2018-11-23T12:39:17.436Z,21.16
2018-11-23T12:41:47.627Z,21.32
2018-11-23T12:44:18.024Z,21.35
2018-11-23T12:46:48.316Z,21.33
2018-11-23T12:49:18.838Z,21.13
2018-11-23T12:51:49.436Z,20.86
2018-11-23T12:54:19.559Z,20.84
2018-11-23T12:56:49.916Z,20.73
2018-11-23T12:59:19.997Z,20.65
2018-11-23T13:01:50.343Z,20.65
2018-11-23T13:04:20.544Z,20.56
2018-11-23T13:06:50.604Z,20.51
2018-11-23T13:09:20.702Z,20.71
2018-11-23T13:11:51.325Z,20.69
2018-11-23T13:14:21.445Z,20.77
2018-11-23T13:16:53.312Z,20.74
2018-11-23T13:19:22.878Z,20.67
2018-11-23T13:21:53.038Z,20.42
2018-11-23T13:24:24.007Z,20.37
2018-11-23T13:26:55.000Z,20.25
2018-11-23T13:29:24.511Z,20.29
2018-11-23T13:31:54.879Z,20.21
2018-11-23T13:34:25.006Z,20.11
2018-11-23T13:36:55.082Z,20.10
2018-11-23T13:39:24.764Z,20.18
2018-11-23T13:41:55.203Z,20.09
2018-11-23T13:44:24.895Z,20.25
2018-11-23T13:46:55.077Z,20.15
2018-11-23T13:49:25.392Z,20.10
2018-11-23T13:51:55.513Z,20.07
2018-11-23T13:54:25.394Z,20.02
2018-11-23T13:57:00.789Z,19.96
2018-11-23T13:59:36.885Z,19.98
2018-11-23T14:02:14.301Z,19.96
2018-11-23T14:04:51.166Z,19.99
2018-11-23T14:07:23.757Z,20.06
2018-11-23T14:09:58.403Z,20.01
2018-11-23T14:12:36.299Z,19.92
2018-11-23T14:15:11.429Z,19.85
2018-11-23T14:17:46.348Z,19.84
2018-11-23T14:20:22.484Z,19.83
2018-11-23T14:22:54.637Z,20.09
2018-11-23T14:25:24.879Z,20.31
2018-11-23T14:27:55.635Z,20.16
2018-11-23T14:30:26.345Z,19.98
2018-11-23T14:32:56.999Z,19.98
2018-11-23T14:35:26.767Z,19.83
2018-11-23T14:37:58.118Z,19.77
2018-11-23T14:40:28.088Z,19.69
2018-11-23T14:42:58.714Z,19.61
2018-11-23T14:45:30.562Z,19.65
2018-11-23T14:48:06.347Z,19.77
2018-11-23T14:50:42.038Z,19.67
2018-11-23T14:55:57.513Z,19.39
2018-11-23T14:58:33.922Z,19.19
2018-11-23T15:01:08.997Z,19.13
2018-11-23T15:03:47.276Z,19.12
2018-11-23T15:06:22.841Z,19.14
2018-11-23T15:08:59.207Z,19.08
2018-11-23T15:11:34.106Z,19.11
2018-11-23T15:14:04.926Z,19.12
2018-11-23T15:16:34.915Z,19.07
2018-11-23T15:19:05.243Z,19.13
2018-11-23T15:24:20.048Z,19.30
2018-11-23T15:26:50.684Z,19.28
2018-11-23T15:29:21.033Z,19.13
2018-11-23T15:31:51.444Z,19.07
2018-11-23T15:34:21.520Z,18.93
2018-11-23T15:36:51.403Z,19.01
2018-11-23T15:39:21.921Z,19.20
2018-11-23T15:41:52.001Z,19.07
2018-11-23T15:44:21.526Z,18.92
2018-11-23T15:46:55.197Z,18.81
2018-11-23T15:49:32.885Z,18.73
2018-11-23T15:52:03.569Z,18.64
2018-11-23T15:54:34.450Z,18.64
2018-11-23T15:57:10.643Z,18.87
2018-11-23T15:59:49.076Z,18.90
2018-11-23T16:02:25.232Z,18.62
2018-11-23T16:10:18.284Z,18.55
2018-11-23T16:12:54.997Z,18.51
2018-11-23T16:15:31.835Z,18.64
2018-11-23T16:18:06.236Z,18.51
2018-11-23T16:20:42.290Z,18.42
2018-11-23T16:23:19.225Z,18.54
2018-11-23T16:25:55.405Z,18.46
2018-11-23T16:28:26.803Z,18.54
2018-11-23T16:30:56.946Z,18.50
2018-11-23T16:33:27.477Z,18.37
2018-11-23T16:35:57.560Z,18.32
2018-11-23T16:38:27.601Z,18.21
2018-11-23T16:40:57.915Z,18.07
2018-11-23T16:43:28.042Z,18.04
2018-11-23T16:45:58.121Z,18.09
2018-11-23T16:48:28.593Z,18.07
2018-11-23T16:50:58.719Z,18.32
2018-11-23T16:53:28.803Z,18.18
2018-11-23T16:55:59.185Z,18.12
2018-11-23T16:58:29.270Z,18.15
2018-11-23T17:00:59.624Z,18.36
2018-11-23T17:03:29.637Z,18.06
2018-11-23T17:05:59.704Z,17.93
2018-11-23T17:08:39.659Z,17.97
2018-11-23T17:11:15.356Z,17.96
2018-11-23T17:13:50.943Z,17.94
2018-11-23T17:16:28.424Z,17.84
2018-11-23T17:19:05.489Z,17.89
2018-11-23T17:21:41.323Z,17.95
2018-11-23T17:24:18.325Z,17.96
2018-11-23T17:32:21.187Z,17.89
2018-11-23T17:34:57.922Z,17.87
2018-11-23T17:37:36.598Z,17.83
2018-11-23T17:40:08.475Z,17.88
2018-11-23T17:42:45.676Z,17.80
2018-11-23T17:45:21.217Z,17.85
2018-11-23T17:47:58.836Z,17.85
2018-11-23T17:50:34.926Z,17.83
2018-11-23T17:53:13.268Z,17.93
2018-11-23T17:55:50.314Z,17.84
2018-11-23T17:58:28.944Z,17.78
2018-11-23T18:01:04.836Z,17.79
2018-11-23T18:06:19.400Z,17.80
2018-11-23T18:08:57.996Z,17.65
2018-11-23T18:11:32.754Z,17.74
2018-11-23T18:14:12.045Z,17.77
2018-11-23T18:16:49.226Z,17.83
2018-11-23T18:19:27.861Z,17.74
2018-11-23T18:22:05.247Z,17.56
2018-11-23T18:24:43.510Z,17.57
2018-11-23T18:27:20.314Z,17.47
2018-11-23T18:29:58.353Z,17.42
2018-11-23T18:32:33.652Z,17.41
2018-11-23T18:35:11.600Z,17.37
2018-11-23T18:40:26.085Z,17.26
2018-11-23T18:43:00.433Z,17.26
2018-11-23T18:45:31.773Z,17.28
2018-11-23T18:48:04.103Z,17.22
2018-11-23T18:50:37.306Z,17.19
2018-11-23T18:53:10.798Z,17.25
2018-11-23T18:55:44.204Z,17.34
2018-11-23T18:58:14.553Z,17.46
2018-11-23T19:00:44.925Z,17.58
2018-11-23T19:03:15.585Z,17.62
2018-11-23T19:05:45.954Z,17.48
2018-11-23T19:08:16.033Z,17.39
2018-11-23T19:10:48.599Z,17.31
2018-11-23T19:13:19.697Z,17.24
2018-11-23T19:15:49.642Z,17.22
2018-11-23T19:18:20.208Z,17.27
2018-11-23T19:20:55.045Z,17.24
2018-11-23T19:23:25.050Z,17.11
2018-11-23T19:25:55.877Z,16.99
2018-11-23T19:28:25.681Z,17.02
2018-11-23T19:30:56.104Z,16.95
2018-11-23T19:33:26.035Z,17.04
2018-11-23T19:35:56.161Z,17.00
2018-11-23T19:38:26.552Z,17.02
2018-11-23T19:40:56.442Z,17.07
2018-11-23T19:43:26.286Z,17.02
2018-11-23T19:45:56.042Z,16.98
2018-11-23T19:48:26.233Z,17.05
2018-11-23T19:50:56.127Z,17.06
2018-11-23T19:53:26.993Z,17.03
2018-11-23T19:55:57.162Z,17.12
2018-11-23T19:58:27.355Z,17.02
2018-11-23T20:00:57.606Z,16.90
2018-11-23T20:03:27.666Z,16.88
2018-11-23T20:05:58.005Z,16.91
2018-11-23T20:08:27.722Z,16.92
2018-11-23T20:10:58.003Z,16.83
2018-11-23T20:13:27.719Z,16.88
2018-11-23T20:16:00.091Z,16.73
2018-11-23T20:18:29.715Z,16.77
2018-11-23T20:20:59.712Z,16.91
2018-11-23T20:23:30.556Z,17.01
2018-11-23T20:26:00.633Z,16.82
2018-11-23T20:28:30.468Z,16.78
2018-11-23T20:31:00.633Z,16.66
2018-11-23T20:33:30.717Z,16.65
2018-11-23T20:36:00.955Z,16.61
2018-11-23T20:38:31.074Z,16.62
2018-11-23T20:41:01.282Z,16.60
2018-11-23T20:43:32.153Z,16.52
2018-11-23T20:46:02.350Z,16.80
2018-11-23T20:48:32.360Z,16.62
2018-11-23T20:51:02.191Z,16.54
2018-11-23T20:53:32.211Z,16.59
2018-11-23T20:56:02.920Z,16.62
2018-11-23T20:58:32.754Z,16.68
2018-11-23T21:01:02.759Z,16.73
2018-11-23T21:03:33.146Z,16.69
2018-11-23T21:06:04.159Z,16.58
2018-11-23T21:08:33.918Z,16.52
2018-11-23T21:11:03.724Z,16.50
2018-11-23T21:13:33.569Z,16.48
2018-11-23T21:16:03.761Z,16.54
2018-11-23T21:18:33.283Z,16.66
2018-11-23T21:21:04.836Z,16.63
2018-11-23T21:23:34.876Z,16.57
2018-11-23T21:26:04.561Z,16.63
2018-11-23T21:28:33.917Z,16.72
2018-11-23T21:31:05.397Z,16.74
2018-11-23T21:33:34.726Z,16.72
2018-11-23T21:36:04.755Z,16.65
2018-11-23T21:38:34.449Z,16.60
2018-11-23T21:41:04.361Z,16.51
2018-11-23T21:43:33.861Z,16.48
2018-11-23T21:46:05.281Z,16.50
2018-11-23T21:48:34.926Z,16.55
2018-11-23T21:51:04.968Z,16.69
2018-11-23T21:53:34.404Z,16.73
2018-11-23T21:56:09.659Z,16.60
2018-11-23T21:58:39.070Z,16.45
2018-11-23T22:01:08.759Z,16.34
2018-11-23T22:03:38.642Z,16.35
2018-11-23T22:06:08.026Z,16.43
2018-11-23T22:08:37.945Z,16.56
2018-11-23T22:11:08.156Z,16.73
2018-11-23T22:13:38.584Z,16.63
2018-11-23T22:16:09.092Z,16.45
2018-11-23T22:18:39.246Z,16.37
2018-11-23T22:21:09.245Z,16.23
2018-11-23T22:23:39.519Z,16.14
2018-11-23T22:26:09.380Z,16.08
2018-11-23T22:28:39.678Z,16.09
2018-11-23T22:31:10.727Z,16.05
2018-11-23T22:33:40.840Z,16.01
2018-11-23T22:36:10.495Z,16.03
2018-11-23T22:38:40.688Z,15.99
2018-11-23T22:41:10.478Z,16.00
2018-11-23T22:43:40.204Z,15.97
2018-11-23T22:46:10.625Z,15.96
2018-11-23T22:48:40.993Z,15.97
2018-11-23T22:51:11.393Z,15.94
2018-11-23T22:53:41.484Z,15.99
2018-11-23T22:56:11.600Z,15.93
2018-11-23T22:58:41.275Z,15.94
2018-11-23T23:01:11.484Z,15.88
2018-11-23T23:03:41.583Z,15.85
2018-11-23T23:06:12.162Z,16.10
2018-11-23T23:08:42.602Z,16.04
2018-11-23T23:11:12.671Z,15.90
2018-11-23T23:13:43.053Z,15.99
2018-11-23T23:16:13.185Z,15.94
2018-11-23T23:18:43.117Z,15.90
2018-11-23T23:21:13.304Z,15.90
2018-11-23T23:23:43.380Z,15.99
2018-11-23T23:26:14.108Z,16.12
2018-11-23T23:28:44.169Z,16.19
2018-11-23T23:31:14.551Z,16.09
2018-11-23T23:33:44.664Z,16.09
2018-11-23T23:36:15.042Z,16.04
2018-11-23T23:38:45.446Z,16.08
2018-11-23T23:41:15.525Z,16.05
2018-11-23T23:43:46.235Z,16.01
2018-11-23T23:46:16.153Z,15.99
2018-11-23T23:48:46.718Z,15.94
2018-11-23T23:51:18.077Z,15.98
2018-11-23T23:53:48.808Z,15.94
2018-11-23T23:56:19.311Z,15.93
2018-11-23T23:58:49.761Z,16.02
